CHICAGO O'HARE INTL

KORD (ORD)
Chicago, Illinois
Towered

Vatsim Metar:
KORD 270351Z 21011G20KT 10SM FEW210 FEW250 22/11 A2983 RMK AO2 SLP097 T02220106

No ATC Online

Traffic

Inbound:
Ident
Type
Name
ETA
Phase
SWA5950
B737
DARWIN BROOKS KLGA
04:29 Z
Descent
AAL1114
A319
Luis Rios KSBA
04:32 Z
Descent
UAL1067
A319
Bill Barrette KLAX
05:49 Z
Cruse
AAL2354
B752
Aaron Cramp
06:13 Z
Cruse

Outbound:
Ident
Type
Name
Destination
Phase

IAPs